sensor_id;sensor_type;location;lat;lon;timestamp;pressure;altitude;pressure_sealevel;temperature;humidity
72925;BME280;61070;50.794;7.054;2023-07-13T00:00:10;100799.63;;;18.39;56.44
72925;BME280;61070;50.794;7.054;2023-07-13T00:02:35;100802.38;;;18.37;56.47
72925;BME280;61070;50.794;7.054;2023-07-13T00:05:01;100802.25;;;18.40;56.54
72925;BME280;61070;50.794;7.054;2023-07-13T00:07:26;100800.56;;;18.38;56.43
72925;BME280;61070;50.794;7.054;2023-07-13T00:09:51;100799.81;;;18.34;56.86
72925;BME280;61070;50.794;7.054;2023-07-13T00:12:26;100800.75;;;18.33;57.43
72925;BME280;61070;50.794;7.054;2023-07-13T00:14:52;100806.25;;;18.30;56.95
72925;BME280;61070;50.794;7.054;2023-07-13T00:17:18;100798.28;;;18.28;57.51
72925;BME280;61070;50.794;7.054;2023-07-13T00:19:43;100803.63;;;18.28;57.57
72925;BME280;61070;50.794;7.054;2023-07-13T00:22:08;100794.66;;;18.29;57.66
72925;BME280;61070;50.794;7.054;2023-07-13T00:24:34;100795.03;;;18.20;57.54
72925;BME280;61070;50.794;7.054;2023-07-13T00:27:01;100792.47;;;18.17;58.03
72925;BME280;61070;50.794;7.054;2023-07-13T00:29:26;100800.53;;;18.17;58.52
72925;BME280;61070;50.794;7.054;2023-07-13T00:31:51;100796.78;;;18.21;58.57
72925;BME280;61070;50.794;7.054;2023-07-13T00:34:17;100792.47;;;18.17;58.97
72925;BME280;61070;50.794;7.054;2023-07-13T00:36:42;100795.09;;;18.19;58.77
72925;BME280;61070;50.794;7.054;2023-07-13T00:39:07;100783.56;;;18.17;59.00
72925;BME280;61070;50.794;7.054;2023-07-13T00:41:33;100783.69;;;18.14;59.03
72925;BME280;61070;50.794;7.054;2023-07-13T00:43:59;100787.78;;;18.22;58.52
72925;BME280;61070;50.794;7.054;2023-07-13T00:46:31;100771.84;;;18.19;59.24
72925;BME280;61070;50.794;7.054;2023-07-13T00:49:02;100780.81;;;18.18;58.72
72925;BME280;61070;50.794;7.054;2023-07-13T00:51:36;100787.19;;;18.16;58.77
72925;BME280;61070;50.794;7.054;2023-07-13T00:54:05;100780.19;;;18.12;58.82
72925;BME280;61070;50.794;7.054;2023-07-13T00:56:33;100780.41;;;18.07;59.28
72925;BME280;61070;50.794;7.054;2023-07-13T00:58:59;100782.34;;;18.03;59.21
72925;BME280;61070;50.794;7.054;2023-07-13T01:01:25;100780.47;;;18.06;58.97
72925;BME280;61070;50.794;7.054;2023-07-13T01:03:50;100785.38;;;17.94;59.61
72925;BME280;61070;50.794;7.054;2023-07-13T01:06:16;100778.34;;;17.92;59.45
72925;BME280;61070;50.794;7.054;2023-07-13T01:08:42;100781.13;;;17.89;59.33
72925;BME280;61070;50.794;7.054;2023-07-13T01:11:08;100790.44;;;17.80;59.90
72925;BME280;61070;50.794;7.054;2023-07-13T01:13:33;100792.56;;;17.72;60.27
72925;BME280;61070;50.794;7.054;2023-07-13T01:16:04;100793.22;;;17.77;60.18
72925;BME280;61070;50.794;7.054;2023-07-13T01:18:31;100792.41;;;17.75;60.20
72925;BME280;61070;50.794;7.054;2023-07-13T01:21:01;100793.75;;;17.63;60.56
72925;BME280;61070;50.794;7.054;2023-07-13T01:23:28;100802.03;;;17.57;60.78
72925;BME280;61070;50.794;7.054;2023-07-13T01:25:54;100795.03;;;17.53;60.91
72925;BME280;61070;50.794;7.054;2023-07-13T01:28:21;100797.97;;;17.47;61.69
72925;BME280;61070;50.794;7.054;2023-07-13T01:30:47;100798.31;;;17.38;62.03
72925;BME280;61070;50.794;7.054;2023-07-13T01:33:15;100793.78;;;17.40;61.74
72925;BME280;61070;50.794;7.054;2023-07-13T01:35:42;100793.91;;;17.37;61.96
72925;BME280;61070;50.794;7.054;2023-07-13T01:38:07;100792.97;;;17.38;62.23
72925;BME280;61070;50.794;7.054;2023-07-13T01:40:33;100788.53;;;17.37;62.50
72925;BME280;61070;50.794;7.054;2023-07-13T01:43:00;100793.19;;;17.32;62.34
72925;BME280;61070;50.794;7.054;2023-07-13T01:45:26;100790.22;;;17.39;61.58
72925;BME280;61070;50.794;7.054;2023-07-13T01:47:51;100787.75;;;17.35;61.89
72925;BME280;61070;50.794;7.054;2023-07-13T01:50:16;100792.31;;;17.31;62.11
72925;BME280;61070;50.794;7.054;2023-07-13T01:52:42;100792.44;;;17.28;62.16
72925;BME280;61070;50.794;7.054;2023-07-13T01:55:07;100795.19;;;17.27;62.31
72925;BME280;61070;50.794;7.054;2023-07-13T01:57:33;100799.66;;;17.26;62.48
72925;BME280;61070;50.794;7.054;2023-07-13T01:59:58;100797.97;;;17.24;62.69
72925;BME280;61070;50.794;7.054;2023-07-13T02:02:24;100799.00;;;17.20;63.02
72925;BME280;61070;50.794;7.054;2023-07-13T02:04:49;100794.84;;;17.12;63.22
72925;BME280;61070;50.794;7.054;2023-07-13T02:07:14;100793.97;;;17.12;63.17
72925;BME280;61070;50.794;7.054;2023-07-13T02:09:40;100800.19;;;17.12;63.31
72925;BME280;61070;50.794;7.054;2023-07-13T02:12:06;100794.03;;;17.10;63.29
72925;BME280;61070;50.794;7.054;2023-07-13T02:14:31;100798.38;;;17.13;63.29
72925;BME280;61070;50.794;7.054;2023-07-13T02:16:56;100804.50;;;17.16;63.22
72925;BME280;61070;50.794;7.054;2023-07-13T02:19:22;100799.13;;;17.16;63.29
72925;BME280;61070;50.794;7.054;2023-07-13T02:21:47;100804.84;;;17.31;62.57
72925;BME280;61070;50.794;7.054;2023-07-13T02:24:13;100797.19;;;17.20;63.00
72925;BME280;61070;50.794;7.054;2023-07-13T02:26:43;100802.47;;;17.23;62.68
72925;BME280;61070;50.794;7.054;2023-07-13T02:29:08;100807.56;;;17.29;62.94
72925;BME280;61070;50.794;7.054;2023-07-13T02:31:34;100803.97;;;17.30;62.68
72925;BME280;61070;50.794;7.054;2023-07-13T02:34:01;100800.75;;;17.21;62.95
72925;BME280;61070;50.794;7.054;2023-07-13T02:36:26;100800.88;;;17.17;63.23
72925;BME280;61070;50.794;7.054;2023-07-13T02:38:51;100797.97;;;17.24;63.44
72925;BME280;61070;50.794;7.054;2023-07-13T02:41:16;100793.59;;;17.21;63.78
72925;BME280;61070;50.794;7.054;2023-07-13T02:43:42;100794.72;;;17.15;63.71
72925;BME280;61070;50.794;7.054;2023-07-13T02:46:07;100796.25;;;17.23;63.08
72925;BME280;61070;50.794;7.054;2023-07-13T02:48:34;100796.88;;;17.29;63.24
72925;BME280;61070;50.794;7.054;2023-07-13T02:50:59;100792.69;;;17.22;63.38
72925;BME280;61070;50.794;7.054;2023-07-13T02:53:25;100798.84;;;17.24;62.83
72925;BME280;61070;50.794;7.054;2023-07-13T02:55:50;100800.88;;;17.17;63.03
72925;BME280;61070;50.794;7.054;2023-07-13T02:58:16;100799.94;;;17.18;62.64
72925;BME280;61070;50.794;7.054;2023-07-13T03:00:42;100808.97;;;17.16;63.49
72925;BME280;61070;50.794;7.054;2023-07-13T03:03:11;100800.66;;;17.24;63.82
72925;BME280;61070;50.794;7.054;2023-07-13T03:05:37;100808.97;;;17.16;63.40
72925;BME280;61070;50.794;7.054;2023-07-13T03:08:02;100803.88;;;17.08;64.09
72925;BME280;61070;50.794;7.054;2023-07-13T03:10:29;100802.28;;;17.04;64.48
72925;BME280;61070;50.794;7.054;2023-07-13T03:12:54;100808.75;;;16.97;64.67
72925;BME280;61070;50.794;7.054;2023-07-13T03:15:19;100809.88;;;16.92;64.91
72925;BME280;61070;50.794;7.054;2023-07-13T03:17:44;100813.53;;;16.89;64.49
72925;BME280;61070;50.794;7.054;2023-07-13T03:20:10;100827.00;;;16.86;64.34
72925;BME280;61070;50.794;7.054;2023-07-13T03:22:35;100828.75;;;16.87;64.51
72925;BME280;61070;50.794;7.054;2023-07-13T03:25:01;100829.00;;;16.81;64.70
72925;BME280;61070;50.794;7.054;2023-07-13T03:27:26;100834.09;;;16.87;64.50
72925;BME280;61070;50.794;7.054;2023-07-13T03:29:51;100832.84;;;16.97;64.06
72925;BME280;61070;50.794;7.054;2023-07-13T03:32:16;100832.03;;;16.95;64.47
72925;BME280;61070;50.794;7.054;2023-07-13T03:34:42;100836.31;;;17.01;64.06
72925;BME280;61070;50.794;7.054;2023-07-13T03:37:07;100837.75;;;17.09;63.50
72925;BME280;61070;50.794;7.054;2023-07-13T03:39:32;100837.44;;;17.18;63.23
72925;BME280;61070;50.794;7.054;2023-07-13T03:41:57;100837.59;;;17.14;62.81
72925;BME280;61070;50.794;7.054;2023-07-13T03:44:23;100835.56;;;17.21;62.76
72925;BME280;61070;50.794;7.054;2023-07-13T03:46:48;100850.94;;;17.15;62.49
72925;BME280;61070;50.794;7.054;2023-07-13T03:49:13;100843.16;;;17.08;62.33
72925;BME280;61070;50.794;7.054;2023-07-13T03:51:39;100842.91;;;17.15;62.39
72925;BME280;61070;50.794;7.054;2023-07-13T03:54:04;100845.28;;;17.00;62.68
72925;BME280;61070;50.794;7.054;2023-07-13T03:56:30;100852.47;;;16.98;63.07
72925;BME280;61070;50.794;7.054;2023-07-13T03:58:56;100852.44;;;16.99;62.88
72925;BME280;61070;50.794;7.054;2023-07-13T04:01:23;100850.28;;;16.84;63.61
72925;BME280;61070;50.794;7.054;2023-07-13T04:03:50;100854.31;;;16.96;63.21
72925;BME280;61070;50.794;7.054;2023-07-13T04:06:21;100848.28;;;16.91;63.53
72925;BME280;61070;50.794;7.054;2023-07-13T04:08:50;100853.56;;;16.92;63.48
72925;BME280;61070;50.794;7.054;2023-07-13T04:11:17;100855.31;;;16.93;63.79
72925;BME280;61070;50.794;7.054;2023-07-13T04:13:42;100851.06;;;16.87;64.08
72925;BME280;61070;50.794;7.054;2023-07-13T04:16:08;100852.97;;;16.84;64.41
72925;BME280;61070;50.794;7.054;2023-07-13T04:18:33;100860.84;;;16.88;64.43
72925;BME280;61070;50.794;7.054;2023-07-13T04:20:58;100860.97;;;16.84;64.61
72925;BME280;61070;50.794;7.054;2023-07-13T04:23:24;100857.06;;;16.94;64.68
72925;BME280;61070;50.794;7.054;2023-07-13T04:25:52;100859.13;;;16.86;64.55
72925;BME280;61070;50.794;7.054;2023-07-13T04:28:19;100856.00;;;16.98;64.95
72925;BME280;61070;50.794;7.054;2023-07-13T04:30:45;100865.81;;;16.99;64.86
72925;BME280;61070;50.794;7.054;2023-07-13T04:33:10;100867.44;;;17.03;64.75
72925;BME280;61070;50.794;7.054;2023-07-13T04:35:36;100863.28;;;16.95;65.14
72925;BME280;61070;50.794;7.054;2023-07-13T04:38:02;100864.53;;;17.09;64.83
72925;BME280;61070;50.794;7.054;2023-07-13T04:40:28;100874.97;;;17.17;64.79
72925;BME280;61070;50.794;7.054;2023-07-13T04:42:54;100866.00;;;17.18;65.01
72925;BME280;61070;50.794;7.054;2023-07-13T04:45:20;100870.97;;;17.29;64.73
72925;BME280;61070;50.794;7.054;2023-07-13T04:47:45;100872.56;;;17.34;65.06
72925;BME280;61070;50.794;7.054;2023-07-13T04:50:13;100868.88;;;17.37;64.82
72925;BME280;61070;50.794;7.054;2023-07-13T04:52:43;100875.25;;;17.34;64.98
72925;BME280;61070;50.794;7.054;2023-07-13T04:55:09;100877.41;;;17.48;64.63
72925;BME280;61070;50.794;7.054;2023-07-13T04:57:34;100877.84;;;17.36;64.62
72925;BME280;61070;50.794;7.054;2023-07-13T04:59:59;100876.84;;;17.38;64.62
72925;BME280;61070;50.794;7.054;2023-07-13T05:02:26;100882.09;;;17.41;65.13
72925;BME280;61070;50.794;7.054;2023-07-13T05:04:56;100882.81;;;17.46;64.90
72925;BME280;61070;50.794;7.054;2023-07-13T05:07:21;100879.25;;;17.46;64.81
72925;BME280;61070;50.794;7.054;2023-07-13T05:09:46;100879.66;;;17.59;64.43
72925;BME280;61070;50.794;7.054;2023-07-13T05:12:12;100890.53;;;17.54;64.85
72925;BME280;61070;50.794;7.054;2023-07-13T05:14:37;100890.84;;;17.46;64.93
72925;BME280;61070;50.794;7.054;2023-07-13T05:17:03;100887.19;;;17.49;64.95
72925;BME280;61070;50.794;7.054;2023-07-13T05:19:28;100881.16;;;17.42;65.42
72925;BME280;61070;50.794;7.054;2023-07-13T05:21:53;100881.81;;;17.49;65.28
72925;BME280;61070;50.794;7.054;2023-07-13T05:24:19;100884.31;;;17.54;64.98
72925;BME280;61070;50.794;7.054;2023-07-13T05:26:44;100894.50;;;17.69;64.68
72925;BME280;61070;50.794;7.054;2023-07-13T05:29:09;100892.19;;;17.58;65.18
72925;BME280;61070;50.794;7.054;2023-07-13T05:31:35;100892.72;;;17.68;65.67
72925;BME280;61070;50.794;7.054;2023-07-13T05:34:00;100898.19;;;17.88;64.86
72925;BME280;61070;50.794;7.054;2023-07-13T05:36:25;100890.00;;;17.69;64.85
72925;BME280;61070;50.794;7.054;2023-07-13T05:38:51;100902.75;;;17.86;64.57
72925;BME280;61070;50.794;7.054;2023-07-13T05:41:16;100894.91;;;17.82;65.01
72925;BME280;61070;50.794;7.054;2023-07-13T05:43:41;100904.78;;;18.03;65.01
72925;BME280;61070;50.794;7.054;2023-07-13T05:46:06;100906.69;;;17.99;64.72
72925;BME280;61070;50.794;7.054;2023-07-13T05:48:32;100904.78;;;18.03;64.54
72925;BME280;61070;50.794;7.054;2023-07-13T05:50:57;100906.47;;;18.06;64.77
72925;BME280;61070;50.794;7.054;2023-07-13T05:53:22;100897.34;;;18.10;64.83
72925;BME280;61070;50.794;7.054;2023-07-13T05:55:48;100903.00;;;18.25;64.80
72925;BME280;61070;50.794;7.054;2023-07-13T05:58:16;100909.53;;;18.40;64.50
72925;BME280;61070;50.794;7.054;2023-07-13T06:00:42;100893.66;;;18.36;64.42
72925;BME280;61070;50.794;7.054;2023-07-13T06:03:07;100907.44;;;18.48;63.98
72925;BME280;61070;50.794;7.054;2023-07-13T06:05:34;100919.09;;;18.47;64.05
72925;BME280;61070;50.794;7.054;2023-07-13T06:08:01;100911.41;;;18.60;64.19
72925;BME280;61070;50.794;7.054;2023-07-13T06:10:26;100915.38;;;18.94;63.65
72925;BME280;61070;50.794;7.054;2023-07-13T06:12:51;100920.00;;;19.10;62.87
72925;BME280;61070;50.794;7.054;2023-07-13T06:15:17;100917.69;;;19.03;61.95
72925;BME280;61070;50.794;7.054;2023-07-13T06:17:42;100921.88;;;19.08;62.15
72925;BME280;61070;50.794;7.054;2023-07-13T06:20:09;100922.44;;;19.37;61.81
72925;BME280;61070;50.794;7.054;2023-07-13T06:22:34;100926.25;;;19.31;61.65
72925;BME280;61070;50.794;7.054;2023-07-13T06:24:59;100929.78;;;19.52;61.58
72925;BME280;61070;50.794;7.054;2023-07-13T06:27:24;100918.66;;;19.61;60.86
72925;BME280;61070;50.794;7.054;2023-07-13T06:29:50;100929.69;;;19.55;60.94
72925;BME280;61070;50.794;7.054;2023-07-13T06:32:15;100933.38;;;19.32;61.17
72925;BME280;61070;50.794;7.054;2023-07-13T06:34:40;100931.53;;;19.53;61.27
72925;BME280;61070;50.794;7.054;2023-07-13T06:37:06;100934.78;;;19.41;60.97
72925;BME280;61070;50.794;7.054;2023-07-13T06:39:32;100932.81;;;19.44;60.96
72925;BME280;61070;50.794;7.054;2023-07-13T06:41:57;100938.72;;;19.53;61.08
72925;BME280;61070;50.794;7.054;2023-07-13T06:44:22;100941.16;;;19.59;60.82
72925;BME280;61070;50.794;7.054;2023-07-13T06:46:48;100935.97;;;19.54;59.93
72925;BME280;61070;50.794;7.054;2023-07-13T06:49:13;100946.53;;;19.59;60.27
72925;BME280;61070;50.794;7.054;2023-07-13T06:51:39;100941.00;;;19.82;59.35
72925;BME280;61070;50.794;7.054;2023-07-13T06:54:08;100938.31;;;19.82;59.87
72925;BME280;61070;50.794;7.054;2023-07-13T06:56:38;100946.50;;;19.79;59.29
72925;BME280;61070;50.794;7.054;2023-07-13T06:59:04;100954.06;;;19.71;59.90
72925;BME280;61070;50.794;7.054;2023-07-13T07:01:29;100949.34;;;19.76;59.84
72925;BME280;61070;50.794;7.054;2023-07-13T07:03:55;100959.97;;;19.98;60.27
72925;BME280;61070;50.794;7.054;2023-07-13T07:06:22;100948.56;;;20.12;59.78
72925;BME280;61070;50.794;7.054;2023-07-13T07:08:51;100950.53;;;20.08;58.87
72925;BME280;61070;50.794;7.054;2023-07-13T07:11:19;100958.44;;;20.30;58.83
72925;BME280;61070;50.794;7.054;2023-07-13T07:13:45;100959.25;;;20.32;58.66
72925;BME280;61070;50.794;7.054;2023-07-13T07:16:11;100963.59;;;20.34;58.67
72925;BME280;61070;50.794;7.054;2023-07-13T07:18:36;100964.19;;;20.41;57.92
72925;BME280;61070;50.794;7.054;2023-07-13T07:21:02;100964.91;;;20.63;57.67
72925;BME280;61070;50.794;7.054;2023-07-13T07:23:27;100974.44;;;20.33;57.86
72925;BME280;61070;50.794;7.054;2023-07-13T07:25:52;100964.34;;;20.19;58.44
72925;BME280;61070;50.794;7.054;2023-07-13T07:28:18;100965.38;;;20.17;58.54
72925;BME280;61070;50.794;7.054;2023-07-13T07:30:47;100970.38;;;20.05;59.69
72925;BME280;61070;50.794;7.054;2023-07-13T07:33:13;100967.22;;;20.15;58.87
72925;BME280;61070;50.794;7.054;2023-07-13T07:35:39;100962.97;;;20.11;59.43
72925;BME280;61070;50.794;7.054;2023-07-13T07:38:04;100961.72;;;19.99;59.82
72925;BME280;61070;50.794;7.054;2023-07-13T07:40:30;100963.44;;;20.38;59.58
72925;BME280;61070;50.794;7.054;2023-07-13T07:42:56;100967.91;;;20.39;59.56
72925;BME280;61070;50.794;7.054;2023-07-13T07:45:21;100962.38;;;20.42;59.21
72925;BME280;61070;50.794;7.054;2023-07-13T07:47:47;100963.09;;;20.64;59.10
72925;BME280;61070;50.794;7.054;2023-07-13T07:50:13;100961.69;;;20.74;58.83
72925;BME280;61070;50.794;7.054;2023-07-13T07:52:38;100963.13;;;20.81;58.25
72925;BME280;61070;50.794;7.054;2023-07-13T07:55:05;100961.94;;;20.87;57.70
72925;BME280;61070;50.794;7.054;2023-07-13T07:57:31;100960.22;;;21.20;56.79
72925;BME280;61070;50.794;7.054;2023-07-13T07:59:56;100969.16;;;21.04;56.97
72925;BME280;61070;50.794;7.054;2023-07-13T08:02:21;100959.34;;;21.20;56.77
72925;BME280;61070;50.794;7.054;2023-07-13T08:04:47;100962.00;;;21.72;56.02
72925;BME280;61070;50.794;7.054;2023-07-13T08:07:12;100961.34;;;21.84;55.47
72925;BME280;61070;50.794;7.054;2023-07-13T08:09:38;100959.44;;;21.53;54.66
72925;BME280;61070;50.794;7.054;2023-07-13T08:12:03;100963.22;;;21.66;55.16
72925;BME280;61070;50.794;7.054;2023-07-13T08:14:29;100961.72;;;21.61;55.85
72925;BME280;61070;50.794;7.054;2023-07-13T08:16:54;100955.03;;;21.68;55.16
72925;BME280;61070;50.794;7.054;2023-07-13T08:19:19;100958.69;;;22.00;54.70
72925;BME280;61070;50.794;7.054;2023-07-13T08:21:45;100961.88;;;21.91;54.02
72925;BME280;61070;50.794;7.054;2023-07-13T08:24:13;100950.03;;;22.42;53.72
72925;BME280;61070;50.794;7.054;2023-07-13T08:26:38;100953.06;;;22.67;52.35
72925;BME280;61070;50.794;7.054;2023-07-13T08:29:03;100943.84;;;22.56;51.81
72925;BME280;61070;50.794;7.054;2023-07-13T08:31:29;100946.13;;;22.32;52.28
72925;BME280;61070;50.794;7.054;2023-07-13T08:33:54;100941.56;;;23.10;51.18
72925;BME280;61070;50.794;7.054;2023-07-13T08:36:19;100947.94;;;23.53;51.00
72925;BME280;61070;50.794;7.054;2023-07-13T08:38:45;100932.81;;;23.20;50.35
72925;BME280;61070;50.794;7.054;2023-07-13T08:41:20;100940.25;;;23.61;50.48
72925;BME280;61070;50.794;7.054;2023-07-13T08:43:49;100929.44;;;23.17;49.68
72925;BME280;61070;50.794;7.054;2023-07-13T08:46:19;100930.56;;;22.83;50.62
72925;BME280;61070;50.794;7.054;2023-07-13T08:49:05;100929.28;;;22.90;50.70
72925;BME280;61070;50.794;7.054;2023-07-13T08:51:45;100927.59;;;23.17;50.48
72925;BME280;61070;50.794;7.054;2023-07-13T08:54:31;100929.81;;;23.11;50.64
72925;BME280;61070;50.794;7.054;2023-07-13T08:56:58;100927.72;;;23.30;49.43
72925;BME280;61070;50.794;7.054;2023-07-13T08:59:28;100930.25;;;23.33;50.06
72925;BME280;61070;50.794;7.054;2023-07-13T09:05:09;100927.44;;;23.35;50.57
72925;BME280;61070;50.794;7.054;2023-07-13T09:08:04;100926.19;;;23.54;50.31
72925;BME280;61070;50.794;7.054;2023-07-13T09:13:44;100932.13;;;23.17;49.72
72925;BME280;61070;50.794;7.054;2023-07-13T09:16:11;100928.91;;;23.54;49.79
72925;BME280;61070;50.794;7.054;2023-07-13T09:18:46;100939.19;;;23.64;49.84
72925;BME280;61070;50.794;7.054;2023-07-13T09:23:42;100923.25;;;23.15;50.21
72925;BME280;61070;50.794;7.054;2023-07-13T09:26:18;100934.50;;;23.37;50.63
72925;BME280;61070;50.794;7.054;2023-07-13T09:28:47;100928.56;;;22.71;50.98
72925;BME280;61070;50.794;7.054;2023-07-13T09:31:20;100924.41;;;23.11;50.84
72925;BME280;61070;50.794;7.054;2023-07-13T09:33:48;100923.72;;;23.21;50.75
72925;BME280;61070;50.794;7.054;2023-07-13T09:36:22;100923.72;;;23.21;51.15
72925;BME280;61070;50.794;7.054;2023-07-13T09:39:39;100929.69;;;23.57;50.40
72925;BME280;61070;50.794;7.054;2023-07-13T09:41:51;100925.56;;;23.21;49.84
72925;BME280;61070;50.794;7.054;2023-07-13T09:46:55;100929.09;;;23.51;49.52
72925;BME280;61070;50.794;7.054;2023-07-13T09:49:26;100923.88;;;23.48;50.13
72925;BME280;61070;50.794;7.054;2023-07-13T09:52:02;100926.91;;;23.87;49.78
72925;BME280;61070;50.794;7.054;2023-07-13T09:54:28;100929.50;;;23.88;48.92
72925;BME280;61070;50.794;7.054;2023-07-13T09:56:58;100925.13;;;24.70;47.74
72925;BME280;61070;50.794;7.054;2023-07-13T09:59:29;100930.84;;;24.92;46.89
72925;BME280;61070;50.794;7.054;2023-07-13T10:01:55;100921.88;;;24.77;47.08
72925;BME280;61070;50.794;7.054;2023-07-13T10:04:29;100937.66;;;24.58;47.68
72925;BME280;61070;50.794;7.054;2023-07-13T10:07:11;100939.84;;;24.38;48.02
72925;BME280;61070;50.794;7.054;2023-07-13T10:09:38;100944.19;;;24.27;47.79
72925;BME280;61070;50.794;7.054;2023-07-13T10:12:12;100942.28;;;23.72;49.59
72925;BME280;61070;50.794;7.054;2023-07-13T10:14:39;100939.06;;;23.51;49.58
72925;BME280;61070;50.794;7.054;2023-07-13T10:17:12;100944.63;;;23.92;49.29
72925;BME280;61070;50.794;7.054;2023-07-13T10:19:38;100937.44;;;23.77;49.14
72925;BME280;61070;50.794;7.054;2023-07-13T10:22:49;100942.69;;;23.80;49.00
72925;BME280;61070;50.794;7.054;2023-07-13T10:25:21;100949.03;;;23.65;48.64
72925;BME280;61070;50.794;7.054;2023-07-13T10:27:49;100944.69;;;24.05;49.05
72925;BME280;61070;50.794;7.054;2023-07-13T10:30:22;100944.56;;;24.21;47.84
72925;BME280;61070;50.794;7.054;2023-07-13T10:32:51;100944.78;;;24.18;48.01
72925;BME280;61070;50.794;7.054;2023-07-13T10:35:19;100951.72;;;24.22;47.44
72925;BME280;61070;50.794;7.054;2023-07-13T10:37:50;100954.94;;;24.00;48.23
72925;BME280;61070;50.794;7.054;2023-07-13T10:40:22;100950.78;;;24.08;47.64
72925;BME280;61070;50.794;7.054;2023-07-13T10:42:50;100943.41;;;24.25;47.32
72925;BME280;61070;50.794;7.054;2023-07-13T10:45:19;100944.53;;;24.49;46.90
72925;BME280;61070;50.794;7.054;2023-07-13T10:47:46;100947.75;;;24.42;47.35
72925;BME280;61070;50.794;7.054;2023-07-13T10:50:17;100948.16;;;24.35;45.51
72925;BME280;61070;50.794;7.054;2023-07-13T10:52:53;100958.47;;;24.29;43.69
72925;BME280;61070;50.794;7.054;2023-07-13T10:55:54;100949.84;;;24.51;43.75
72925;BME280;61070;50.794;7.054;2023-07-13T10:58:40;100947.16;;;24.22;43.86
72925;BME280;61070;50.794;7.054;2023-07-13T11:03:37;100953.88;;;24.17;43.50
72925;BME280;61070;50.794;7.054;2023-07-13T11:06:10;100954.84;;;24.01;43.48
72925;BME280;61070;50.794;7.054;2023-07-13T11:08:50;100953.78;;;23.90;44.07
72925;BME280;61070;50.794;7.054;2023-07-13T11:18:45;100954.03;;;24.42;42.92
72925;BME280;61070;50.794;7.054;2023-07-13T11:21:16;100948.44;;;24.17;43.09
72925;BME280;61070;50.794;7.054;2023-07-13T11:23:43;100956.94;;;24.25;43.27
72925;BME280;61070;50.794;7.054;2023-07-13T11:28:56;100951.44;;;24.26;42.76
72925;BME280;61070;50.794;7.054;2023-07-13T11:31:22;100956.09;;;23.96;41.13
72925;BME280;61070;50.794;7.054;2023-07-13T11:33:51;100951.84;;;24.06;41.07
72925;BME280;61070;50.794;7.054;2023-07-13T11:36:20;100959.34;;;24.29;41.87
72925;BME280;61070;50.794;7.054;2023-07-13T11:41:44;100955.97;;;24.11;41.91
72925;BME280;61070;50.794;7.054;2023-07-13T11:44:14;100953.09;;;24.00;42.46
72925;BME280;61070;50.794;7.054;2023-07-13T11:46:43;100958.91;;;24.08;40.97
72925;BME280;61070;50.794;7.054;2023-07-13T11:49:15;100962.25;;;24.12;41.08
72925;BME280;61070;50.794;7.054;2023-07-13T11:51:40;100958.63;;;24.13;41.46
72925;BME280;61070;50.794;7.054;2023-07-13T11:54:30;100964.97;;;24.12;41.53
72925;BME280;61070;50.794;7.054;2023-07-13T11:56:57;100968.16;;;24.19;41.40
72925;BME280;61070;50.794;7.054;2023-07-13T11:59:25;100965.47;;;23.76;41.73
72925;BME280;61070;50.794;7.054;2023-07-13T12:01:52;100960.66;;;23.95;41.92
72925;BME280;61070;50.794;7.054;2023-07-13T12:04:22;100953.69;;;23.91;42.48
72925;BME280;61070;50.794;7.054;2023-07-13T12:06:54;100961.44;;;23.83;42.71
72925;BME280;61070;50.794;7.054;2023-07-13T12:09:20;100967.41;;;23.88;42.46
72925;BME280;61070;50.794;7.054;2023-07-13T12:11:50;100962.09;;;23.72;42.87
72925;BME280;61070;50.794;7.054;2023-07-13T12:14:16;100963.38;;;23.81;43.48
72925;BME280;61070;50.794;7.054;2023-07-13T12:16:43;100961.91;;;23.61;44.06
72925;BME280;61070;50.794;7.054;2023-07-13T12:19:28;100968.84;;;23.65;44.05
72925;BME280;61070;50.794;7.054;2023-07-13T12:21:56;100968.81;;;23.51;44.04
72925;BME280;61070;50.794;7.054;2023-07-13T12:24:22;100972.94;;;23.42;44.43
72925;BME280;61070;50.794;7.054;2023-07-13T12:26:59;100976.47;;;23.29;45.68
72925;BME280;61070;50.794;7.054;2023-07-13T12:29:26;100977.66;;;23.39;45.38
72925;BME280;61070;50.794;7.054;2023-07-13T12:31:51;100974.66;;;23.43;45.85
72925;BME280;61070;50.794;7.054;2023-07-13T12:34:19;100983.69;;;23.14;46.53
72925;BME280;61070;50.794;7.054;2023-07-13T12:36:54;100979.06;;;23.16;46.65
72925;BME280;61070;50.794;7.054;2023-07-13T12:39:26;100978.13;;;23.31;45.91
72925;BME280;61070;50.794;7.054;2023-07-13T12:41:53;100977.66;;;23.39;45.56
72925;BME280;61070;50.794;7.054;2023-07-13T12:44:40;100985.38;;;23.75;44.65
72925;BME280;61070;50.794;7.054;2023-07-13T12:47:11;100981.72;;;23.90;43.29
72925;BME280;61070;50.794;7.054;2023-07-13T12:49:53;100981.94;;;24.01;42.60
72925;BME280;61070;50.794;7.054;2023-07-13T12:52:27;100984.72;;;23.71;42.59
72925;BME280;61070;50.794;7.054;2023-07-13T12:54:58;100979.78;;;23.92;43.15
72925;BME280;61070;50.794;7.054;2023-07-13T12:57:24;100977.09;;;23.92;42.83
72925;BME280;61070;50.794;7.054;2023-07-13T12:59:53;100979.31;;;24.14;43.14
72925;BME280;61070;50.794;7.054;2023-07-13T13:02:49;100980.34;;;23.97;43.87
72925;BME280;61070;50.794;7.054;2023-07-13T13:05:15;100975.91;;;24.10;43.98
72925;BME280;61070;50.794;7.054;2023-07-13T13:07:40;100989.63;;;24.22;43.68
72925;BME280;61070;50.794;7.054;2023-07-13T13:10:13;100985.09;;;24.36;43.51
72925;BME280;61070;50.794;7.054;2023-07-13T13:12:39;100986.91;;;24.50;43.44
72925;BME280;61070;50.794;7.054;2023-07-13T13:15:05;100996.78;;;24.51;40.95
72925;BME280;61070;50.794;7.054;2023-07-13T13:17:32;100994.06;;;24.23;41.74
72925;BME280;61070;50.794;7.054;2023-07-13T13:19:57;100995.06;;;24.36;41.32